This is the latest recevied weather packets stored in our database for station/object OE3MHU-12. If no packets are shown the sender has not sent any weather packets the latest 10 day(s).
| Time | Temp. | Humidity | Pressure | Rain* | Wind** | Luminosity | Snow |
|---|---|---|---|---|---|---|---|
| 1777501560 | 1.11° C | 56% | 1029.7 hPa | 0 mm | - | - | - |
| 1777499760 | 2.22° C | 53% | 1029.6 hPa | 0 mm | - | - | - |
| 1777497960 | 3.33° C | 46% | 1029.2 hPa | 0 mm | - | - | - |
| 1777496160 | 4.44° C | 42% | 1028.8 hPa | 0 mm | - | - | - |
| 1777494360 | 5.56° C | 39% | 1028.4 hPa | 0 mm | - | - | - |
| 1777492560 | 6.11° C | 37% | 1028 hPa | 0 mm | - | - | - |
| 1777490761 | 6.67° C | 38% | 1027.4 hPa | 0 mm | - | - | - |
| 1777488961 | 7.22° C | 38% | 1026.8 hPa | 0 mm | - | - | - |
| 1777487161 | 8.33° C | 37% | 1026 hPa | 0 mm | - | - | - |
| 1777485361 | 9.44° C | 36% | 1025.2 hPa | 0 mm | - | - | - |
| 1777483561 | 10.56° C | 37% | 1024.5 hPa | 0 mm | - | - | - |
| 1777481761 | 11.67° C | 38% | 1024 hPa | 0 mm | - | - | - |
| 1777479963 | 12.22° C | 38% | 1023.7 hPa | 0 mm | - | - | - |
| 1777478161 | 13.89° C | 38% | 1023.3 hPa | 0 mm | - | - | - |
| 1777476362 | 15° C | 33% | 1023 hPa | 0 mm | - | - | - |
| 1777474561 | 15° C | 32% | 1022.8 hPa | 0 mm | - | - | - |
| 1777472762 | 15.56° C | 30% | 1022.8 hPa | 0 mm | - | - | - |
| 1777469162 | 15.56° C | 33% | 1022.6 hPa | 0 mm | - | - | - |
| 1777467362 | 15.56° C | 32% | 1022.8 hPa | 0 mm | - | - | - |
| 1777465562 | 15° C | 34% | 1023.2 hPa | 0 mm | - | - | - |
| 1777463762 | 14.44° C | 33% | 1023.2 hPa | 0 mm | - | - | - |
| 1777461962 | 13.89° C | 32% | 1023.4 hPa | 0 mm | - | - | - |
| 1777460162 | 13.33° C | 35% | 1023.7 hPa | 0 mm | - | - | - |
| 1777458362 | 13.33° C | 32% | 1023.9 hPa | 0 mm | - | - | - |
| 1777454762 | 12.78° C | 34% | 1024.1 hPa | 0 mm | - | - | - |
* Rain latest hour (hover to see other rain measurements)
** Current wind speed in m/s (hover to see current wind gust speed)